Terminal Aerodrome Forecast
Issued by NWS South Bend, IN

Home | Current Version | Previous Version | Graphics & Text | Print | Product List | Glossary On
Versions: 1 2 3 4 5 6 7 8 9 10 11 12 13
000
FTUS43 KIWX 251700
TAFSBN
TAF
KSBN 251740Z 2518/2618 09011G18KT P6SM -RA OVC060
      TEMPO 2518/2521 4SM -RA BR OVC040
     FM252300 06011KT P6SM OVC040
     FM260300 04007KT P6SM SCT120
     FM261400 01011KT P6SM FEW040=

USA.gov is the U.S. government's official web portal to all federal, state and local government web resources and services.